sensor_id;sensor_type;location;lat;lon;timestamp;P1;durP1;ratioP1;P2;durP2;ratioP2
19778;SDS011;10049;59.306;18.090;2024-01-07T00:01:34;1.20;;;1.00;;
19778;SDS011;10049;59.306;18.090;2024-01-07T00:04:03;0.80;;;0.63;;
19778;SDS011;10049;59.306;18.090;2024-01-07T00:06:33;0.90;;;0.60;;
19778;SDS011;10049;59.306;18.090;2024-01-07T00:09:01;3.33;;;1.27;;
19778;SDS011;10049;59.306;18.090;2024-01-07T00:11:29;1.93;;;1.17;;
19778;SDS011;10049;59.306;18.090;2024-01-07T00:13:56;1.60;;;0.90;;
19778;SDS011;10049;59.306;18.090;2024-01-07T00:16:24;0.60;;;0.60;;
19778;SDS011;10049;59.306;18.090;2024-01-07T00:18:53;0.97;;;0.80;;
19778;SDS011;10049;59.306;18.090;2024-01-07T00:21:21;0.97;;;0.60;;
19778;SDS011;10049;59.306;18.090;2024-01-07T00:23:48;0.43;;;0.43;;
19778;SDS011;10049;59.306;18.090;2024-01-07T00:26:16;1.33;;;0.83;;
19778;SDS011;10049;59.306;18.090;2024-01-07T00:28:45;0.80;;;0.70;;
19778;SDS011;10049;59.306;18.090;2024-01-07T00:31:12;0.63;;;0.60;;
19778;SDS011;10049;59.306;18.090;2024-01-07T00:33:40;1.57;;;0.90;;
19778;SDS011;10049;59.306;18.090;2024-01-07T00:36:10;2.50;;;1.03;;
19778;SDS011;10049;59.306;18.090;2024-01-07T00:38:37;1.63;;;1.00;;
19778;SDS011;10049;59.306;18.090;2024-01-07T00:41:07;1.40;;;0.77;;
19778;SDS011;10049;59.306;18.090;2024-01-07T00:43:35;3.20;;;1.20;;
19778;SDS011;10049;59.306;18.090;2024-01-07T00:46:03;1.17;;;1.07;;
19778;SDS011;10049;59.306;18.090;2024-01-07T00:48:32;2.27;;;1.43;;
19778;SDS011;10049;59.306;18.090;2024-01-07T00:51:00;2.83;;;1.43;;
19778;SDS011;10049;59.306;18.090;2024-01-07T00:53:29;0.60;;;0.60;;
19778;SDS011;10049;59.306;18.090;2024-01-07T00:55:57;0.40;;;0.40;;
19778;SDS011;10049;59.306;18.090;2024-01-07T00:58:25;0.33;;;0.33;;
19778;SDS011;10049;59.306;18.090;2024-01-07T01:00:53;0.50;;;0.50;;
19778;SDS011;10049;59.306;18.090;2024-01-07T01:03:22;1.43;;;1.07;;
19778;SDS011;10049;59.306;18.090;2024-01-07T01:05:49;2.37;;;1.10;;
19778;SDS011;10049;59.306;18.090;2024-01-07T01:08:18;1.53;;;0.70;;
19778;SDS011;10049;59.306;18.090;2024-01-07T01:10:47;1.57;;;1.13;;
19778;SDS011;10049;59.306;18.090;2024-01-07T01:13:14;1.93;;;1.17;;
19778;SDS011;10049;59.306;18.090;2024-01-07T01:15:44;1.27;;;1.00;;
19778;SDS011;10049;59.306;18.090;2024-01-07T01:18:12;2.93;;;1.53;;
19778;SDS011;10049;59.306;18.090;2024-01-07T01:20:40;2.00;;;1.30;;
19778;SDS011;10049;59.306;18.090;2024-01-07T01:23:08;1.43;;;0.87;;
19778;SDS011;10049;59.306;18.090;2024-01-07T01:25:35;1.93;;;1.40;;
19778;SDS011;10049;59.306;18.090;2024-01-07T01:28:07;2.03;;;1.00;;
19778;SDS011;10049;59.306;18.090;2024-01-07T01:30:34;1.73;;;1.37;;
19778;SDS011;10049;59.306;18.090;2024-01-07T01:33:01;2.13;;;1.07;;
19778;SDS011;10049;59.306;18.090;2024-01-07T01:35:32;1.60;;;1.23;;
19778;SDS011;10049;59.306;18.090;2024-01-07T01:37:59;2.70;;;1.40;;
19778;SDS011;10049;59.306;18.090;2024-01-07T01:40:27;0.43;;;0.43;;
19778;SDS011;10049;59.306;18.090;2024-01-07T01:42:54;1.17;;;0.83;;
19778;SDS011;10049;59.306;18.090;2024-01-07T01:45:25;2.03;;;1.40;;
19778;SDS011;10049;59.306;18.090;2024-01-07T01:47:55;1.70;;;1.30;;
19778;SDS011;10049;59.306;18.090;2024-01-07T01:50:22;1.40;;;1.13;;
19778;SDS011;10049;59.306;18.090;2024-01-07T01:52:50;1.23;;;1.00;;
19778;SDS011;10049;59.306;18.090;2024-01-07T01:55:18;2.67;;;1.43;;
19778;SDS011;10049;59.306;18.090;2024-01-07T01:57:47;1.37;;;1.10;;
19778;SDS011;10049;59.306;18.090;2024-01-07T02:00:15;2.90;;;1.30;;
19778;SDS011;10049;59.306;18.090;2024-01-07T02:02:44;1.87;;;1.20;;
19778;SDS011;10049;59.306;18.090;2024-01-07T02:05:12;2.37;;;1.30;;
19778;SDS011;10049;59.306;18.090;2024-01-07T02:07:39;1.57;;;1.10;;
19778;SDS011;10049;59.306;18.090;2024-01-07T02:10:07;2.30;;;1.43;;
19778;SDS011;10049;59.306;18.090;2024-01-07T02:12:35;1.23;;;1.07;;
19778;SDS011;10049;59.306;18.090;2024-01-07T02:15:03;1.60;;;1.10;;
19778;SDS011;10049;59.306;18.090;2024-01-07T02:17:31;1.63;;;1.30;;
19778;SDS011;10049;59.306;18.090;2024-01-07T02:20:00;3.10;;;1.30;;
19778;SDS011;10049;59.306;18.090;2024-01-07T02:22:27;4.43;;;1.37;;
19778;SDS011;10049;59.306;18.090;2024-01-07T02:24:59;2.50;;;1.40;;
19778;SDS011;10049;59.306;18.090;2024-01-07T02:27:26;2.70;;;1.50;;
19778;SDS011;10049;59.306;18.090;2024-01-07T02:29:55;3.50;;;1.40;;
19778;SDS011;10049;59.306;18.090;2024-01-07T02:32:23;3.20;;;1.57;;
19778;SDS011;10049;59.306;18.090;2024-01-07T02:34:51;2.73;;;1.50;;
19778;SDS011;10049;59.306;18.090;2024-01-07T02:37:18;3.83;;;1.30;;
19778;SDS011;10049;59.306;18.090;2024-01-07T02:39:46;2.40;;;1.10;;
19778;SDS011;10049;59.306;18.090;2024-01-07T02:42:16;1.83;;;1.00;;
19778;SDS011;10049;59.306;18.090;2024-01-07T02:44:43;1.30;;;0.97;;
19778;SDS011;10049;59.306;18.090;2024-01-07T02:47:12;1.50;;;0.97;;
19778;SDS011;10049;59.306;18.090;2024-01-07T02:49:40;1.13;;;0.87;;
19778;SDS011;10049;59.306;18.090;2024-01-07T02:52:07;1.93;;;1.30;;
19778;SDS011;10049;59.306;18.090;2024-01-07T02:54:36;2.23;;;1.10;;
19778;SDS011;10049;59.306;18.090;2024-01-07T02:57:05;1.23;;;0.87;;
19778;SDS011;10049;59.306;18.090;2024-01-07T02:59:34;1.00;;;0.80;;
19778;SDS011;10049;59.306;18.090;2024-01-07T03:02:02;1.10;;;0.67;;
19778;SDS011;10049;59.306;18.090;2024-01-07T03:04:31;1.17;;;1.07;;
19778;SDS011;10049;59.306;18.090;2024-01-07T03:06:59;1.30;;;0.70;;
19778;SDS011;10049;59.306;18.090;2024-01-07T03:09:26;1.57;;;1.20;;
19778;SDS011;10049;59.306;18.090;2024-01-07T03:11:54;1.40;;;1.03;;
19778;SDS011;10049;59.306;18.090;2024-01-07T03:14:22;2.23;;;1.37;;
19778;SDS011;10049;59.306;18.090;2024-01-07T03:16:53;1.30;;;1.00;;
19778;SDS011;10049;59.306;18.090;2024-01-07T03:19:21;0.67;;;0.67;;
19778;SDS011;10049;59.306;18.090;2024-01-07T03:21:48;1.43;;;1.03;;
19778;SDS011;10049;59.306;18.090;2024-01-07T03:24:17;0.60;;;0.60;;
19778;SDS011;10049;59.306;18.090;2024-01-07T03:26:45;0.20;;;0.20;;
19778;SDS011;10049;59.306;18.090;2024-01-07T03:29:13;0.60;;;0.60;;
19778;SDS011;10049;59.306;18.090;2024-01-07T03:31:40;1.30;;;1.10;;
19778;SDS011;10049;59.306;18.090;2024-01-07T03:34:09;2.03;;;1.30;;
19778;SDS011;10049;59.306;18.090;2024-01-07T03:36:37;0.60;;;0.60;;
19778;SDS011;10049;59.306;18.090;2024-01-07T03:39:04;3.17;;;1.10;;
19778;SDS011;10049;59.306;18.090;2024-01-07T03:41:34;1.00;;;0.70;;
19778;SDS011;10049;59.306;18.090;2024-01-07T03:44:01;0.67;;;0.57;;
19778;SDS011;10049;59.306;18.090;2024-01-07T03:46:28;0.67;;;0.67;;
19778;SDS011;10049;59.306;18.090;2024-01-07T03:48:56;0.73;;;0.70;;
19778;SDS011;10049;59.306;18.090;2024-01-07T03:51:25;1.27;;;0.93;;
19778;SDS011;10049;59.306;18.090;2024-01-07T03:53:53;0.70;;;0.70;;
19778;SDS011;10049;59.306;18.090;2024-01-07T03:56:21;2.63;;;0.70;;
19778;SDS011;10049;59.306;18.090;2024-01-07T03:58:48;1.03;;;0.90;;
19778;SDS011;10049;59.306;18.090;2024-01-07T04:01:18;1.67;;;0.90;;
19778;SDS011;10049;59.306;18.090;2024-01-07T04:03:45;0.60;;;0.60;;
19778;SDS011;10049;59.306;18.090;2024-01-07T04:06:13;2.33;;;1.27;;
19778;SDS011;10049;59.306;18.090;2024-01-07T04:08:42;1.40;;;0.83;;
19778;SDS011;10049;59.306;18.090;2024-01-07T04:11:11;2.27;;;1.10;;
19778;SDS011;10049;59.306;18.090;2024-01-07T04:13:39;0.40;;;0.40;;
19778;SDS011;10049;59.306;18.090;2024-01-07T04:16:15;1.97;;;1.03;;
19778;SDS011;10049;59.306;18.090;2024-01-07T04:18:43;0.97;;;0.90;;
19778;SDS011;10049;59.306;18.090;2024-01-07T04:21:11;1.93;;;0.97;;
19778;SDS011;10049;59.306;18.090;2024-01-07T04:23:39;1.00;;;0.80;;
19778;SDS011;10049;59.306;18.090;2024-01-07T04:26:08;0.97;;;0.60;;
19778;SDS011;10049;59.306;18.090;2024-01-07T04:28:38;0.60;;;0.60;;
19778;SDS011;10049;59.306;18.090;2024-01-07T04:31:05;1.70;;;1.30;;
19778;SDS011;10049;59.306;18.090;2024-01-07T04:33:32;1.53;;;1.17;;
19778;SDS011;10049;59.306;18.090;2024-01-07T04:36:00;1.07;;;0.53;;
19778;SDS011;10049;59.306;18.090;2024-01-07T04:38:34;1.60;;;0.90;;
19778;SDS011;10049;59.306;18.090;2024-01-07T04:41:02;0.63;;;0.63;;
19778;SDS011;10049;59.306;18.090;2024-01-07T04:43:34;4.73;;;1.13;;
19778;SDS011;10049;59.306;18.090;2024-01-07T04:46:04;0.43;;;0.43;;
19778;SDS011;10049;59.306;18.090;2024-01-07T04:48:32;1.17;;;0.90;;
19778;SDS011;10049;59.306;18.090;2024-01-07T04:51:02;1.13;;;0.90;;
19778;SDS011;10049;59.306;18.090;2024-01-07T04:53:30;0.63;;;0.53;;
19778;SDS011;10049;59.306;18.090;2024-01-07T04:55:57;1.40;;;1.20;;
19778;SDS011;10049;59.306;18.090;2024-01-07T04:58:25;1.47;;;0.70;;
19778;SDS011;10049;59.306;18.090;2024-01-07T05:00:54;0.90;;;0.73;;
19778;SDS011;10049;59.306;18.090;2024-01-07T05:03:21;2.63;;;1.10;;
19778;SDS011;10049;59.306;18.090;2024-01-07T05:05:49;0.83;;;0.83;;
19778;SDS011;10049;59.306;18.090;2024-01-07T05:08:17;0.43;;;0.43;;
19778;SDS011;10049;59.306;18.090;2024-01-07T05:10:44;3.47;;;0.60;;
19778;SDS011;10049;59.306;18.090;2024-01-07T05:13:12;1.03;;;0.60;;
19778;SDS011;10049;59.306;18.090;2024-01-07T05:15:40;0.47;;;0.47;;
19778;SDS011;10049;59.306;18.090;2024-01-07T05:18:09;0.80;;;0.60;;
19778;SDS011;10049;59.306;18.090;2024-01-07T05:20:36;1.60;;;0.83;;
19778;SDS011;10049;59.306;18.090;2024-01-07T05:23:04;1.33;;;0.90;;
19778;SDS011;10049;59.306;18.090;2024-01-07T05:25:32;0.67;;;0.60;;
19778;SDS011;10049;59.306;18.090;2024-01-07T05:28:01;0.70;;;0.70;;
19778;SDS011;10049;59.306;18.090;2024-01-07T05:30:29;1.40;;;0.73;;
19778;SDS011;10049;59.306;18.090;2024-01-07T05:32:57;0.50;;;0.50;;
19778;SDS011;10049;59.306;18.090;2024-01-07T05:35:26;0.70;;;0.70;;
19778;SDS011;10049;59.306;18.090;2024-01-07T05:37:54;1.47;;;0.90;;
19778;SDS011;10049;59.306;18.090;2024-01-07T05:40:22;1.20;;;1.10;;
19778;SDS011;10049;59.306;18.090;2024-01-07T05:42:50;0.60;;;0.60;;
19778;SDS011;10049;59.306;18.090;2024-01-07T05:45:17;1.47;;;0.83;;
19778;SDS011;10049;59.306;18.090;2024-01-07T05:47:45;1.30;;;1.10;;
19778;SDS011;10049;59.306;18.090;2024-01-07T05:50:13;1.20;;;1.00;;
19778;SDS011;10049;59.306;18.090;2024-01-07T05:52:46;1.47;;;0.73;;
19778;SDS011;10049;59.306;18.090;2024-01-07T05:55:13;1.03;;;0.67;;
19778;SDS011;10049;59.306;18.090;2024-01-07T05:57:43;1.33;;;0.50;;
19778;SDS011;10049;59.306;18.090;2024-01-07T06:00:12;1.30;;;1.07;;
19778;SDS011;10049;59.306;18.090;2024-01-07T06:02:40;2.90;;;1.00;;
19778;SDS011;10049;59.306;18.090;2024-01-07T06:05:08;1.73;;;0.97;;
19778;SDS011;10049;59.306;18.090;2024-01-07T06:07:35;1.00;;;0.90;;
19778;SDS011;10049;59.306;18.090;2024-01-07T06:10:05;1.83;;;1.10;;
19778;SDS011;10049;59.306;18.090;2024-01-07T06:12:38;0.63;;;0.63;;
19778;SDS011;10049;59.306;18.090;2024-01-07T06:15:06;0.83;;;0.77;;
19778;SDS011;10049;59.306;18.090;2024-01-07T06:17:34;1.00;;;0.70;;
19778;SDS011;10049;59.306;18.090;2024-01-07T06:20:02;1.20;;;1.10;;
19778;SDS011;10049;59.306;18.090;2024-01-07T06:22:31;0.73;;;0.73;;
19778;SDS011;10049;59.306;18.090;2024-01-07T06:25:03;1.57;;;0.53;;
19778;SDS011;10049;59.306;18.090;2024-01-07T06:27:33;1.80;;;0.90;;
19778;SDS011;10049;59.306;18.090;2024-01-07T06:30:01;0.57;;;0.57;;
19778;SDS011;10049;59.306;18.090;2024-01-07T06:32:29;0.40;;;0.40;;
19778;SDS011;10049;59.306;18.090;2024-01-07T06:34:58;0.90;;;0.80;;
19778;SDS011;10049;59.306;18.090;2024-01-07T06:37:25;1.23;;;0.87;;
19778;SDS011;10049;59.306;18.090;2024-01-07T06:39:55;1.17;;;0.90;;
19778;SDS011;10049;59.306;18.090;2024-01-07T06:42:23;0.57;;;0.57;;
19778;SDS011;10049;59.306;18.090;2024-01-07T06:44:52;0.90;;;0.77;;
19778;SDS011;10049;59.306;18.090;2024-01-07T06:47:20;0.57;;;0.57;;
19778;SDS011;10049;59.306;18.090;2024-01-07T06:49:48;0.57;;;0.57;;
19778;SDS011;10049;59.306;18.090;2024-01-07T06:52:16;1.20;;;0.77;;
19778;SDS011;10049;59.306;18.090;2024-01-07T06:54:46;2.60;;;1.13;;
19778;SDS011;10049;59.306;18.090;2024-01-07T06:57:14;2.03;;;1.10;;
19778;SDS011;10049;59.306;18.090;2024-01-07T06:59:43;1.03;;;0.93;;
19778;SDS011;10049;59.306;18.090;2024-01-07T07:02:12;1.40;;;0.87;;
19778;SDS011;10049;59.306;18.090;2024-01-07T07:04:40;1.63;;;0.67;;
19778;SDS011;10049;59.306;18.090;2024-01-07T07:07:07;0.90;;;0.90;;
19778;SDS011;10049;59.306;18.090;2024-01-07T07:09:35;0.50;;;0.50;;
19778;SDS011;10049;59.306;18.090;2024-01-07T07:12:03;5.17;;;0.70;;
19778;SDS011;10049;59.306;18.090;2024-01-07T07:14:33;2.10;;;1.10;;
19778;SDS011;10049;59.306;18.090;2024-01-07T07:17:01;1.40;;;1.00;;
19778;SDS011;10049;59.306;18.090;2024-01-07T07:19:30;0.40;;;0.40;;
19778;SDS011;10049;59.306;18.090;2024-01-07T07:21:58;1.30;;;0.80;;
19778;SDS011;10049;59.306;18.090;2024-01-07T07:24:26;0.40;;;0.40;;
19778;SDS011;10049;59.306;18.090;2024-01-07T07:26:54;1.00;;;0.97;;
19778;SDS011;10049;59.306;18.090;2024-01-07T07:29:21;1.90;;;0.90;;
19778;SDS011;10049;59.306;18.090;2024-01-07T07:31:49;0.70;;;0.63;;
19778;SDS011;10049;59.306;18.090;2024-01-07T07:34:16;2.70;;;1.07;;
19778;SDS011;10049;59.306;18.090;2024-01-07T07:36:46;1.47;;;0.97;;
19778;SDS011;10049;59.306;18.090;2024-01-07T07:39:14;1.67;;;1.30;;
19778;SDS011;10049;59.306;18.090;2024-01-07T07:41:42;1.67;;;1.10;;
19778;SDS011;10049;59.306;18.090;2024-01-07T07:44:09;0.97;;;0.70;;
19778;SDS011;10049;59.306;18.090;2024-01-07T07:46:37;1.13;;;0.70;;
19778;SDS011;10049;59.306;18.090;2024-01-07T07:49:04;1.27;;;0.97;;
19778;SDS011;10049;59.306;18.090;2024-01-07T07:51:32;1.73;;;1.10;;
19778;SDS011;10049;59.306;18.090;2024-01-07T07:54:01;1.07;;;0.87;;
19778;SDS011;10049;59.306;18.090;2024-01-07T07:56:29;0.83;;;0.83;;
19778;SDS011;10049;59.306;18.090;2024-01-07T07:58:57;0.97;;;0.83;;
19778;SDS011;10049;59.306;18.090;2024-01-07T08:01:24;1.30;;;1.07;;
19778;SDS011;10049;59.306;18.090;2024-01-07T08:03:52;1.30;;;1.20;;
19778;SDS011;10049;59.306;18.090;2024-01-07T08:06:20;2.67;;;1.13;;
19778;SDS011;10049;59.306;18.090;2024-01-07T08:08:48;1.70;;;1.23;;
19778;SDS011;10049;59.306;18.090;2024-01-07T08:11:17;0.93;;;0.63;;
19778;SDS011;10049;59.306;18.090;2024-01-07T08:13:46;1.67;;;1.20;;
19778;SDS011;10049;59.306;18.090;2024-01-07T08:16:13;5.80;;;1.27;;
19778;SDS011;10049;59.306;18.090;2024-01-07T08:18:41;1.37;;;1.00;;
19778;SDS011;10049;59.306;18.090;2024-01-07T08:21:10;1.53;;;1.37;;
19778;SDS011;10049;59.306;18.090;2024-01-07T08:23:38;2.37;;;1.40;;
19778;SDS011;10049;59.306;18.090;2024-01-07T08:26:07;1.43;;;1.00;;
19778;SDS011;10049;59.306;18.090;2024-01-07T08:28:37;1.43;;;1.13;;
19778;SDS011;10049;59.306;18.090;2024-01-07T08:31:07;2.50;;;1.20;;
19778;SDS011;10049;59.306;18.090;2024-01-07T08:33:37;1.97;;;1.17;;
19778;SDS011;10049;59.306;18.090;2024-01-07T08:36:05;1.53;;;1.17;;
19778;SDS011;10049;59.306;18.090;2024-01-07T08:38:33;1.50;;;1.10;;
19778;SDS011;10049;59.306;18.090;2024-01-07T08:41:02;2.70;;;1.50;;
19778;SDS011;10049;59.306;18.090;2024-01-07T08:43:33;2.53;;;1.30;;
19778;SDS011;10049;59.306;18.090;2024-01-07T08:46:04;2.93;;;1.30;;
19778;SDS011;10049;59.306;18.090;2024-01-07T08:48:32;1.17;;;0.90;;
19778;SDS011;10049;59.306;18.090;2024-01-07T08:51:00;1.67;;;1.20;;
19778;SDS011;10049;59.306;18.090;2024-01-07T08:53:28;1.70;;;1.30;;
19778;SDS011;10049;59.306;18.090;2024-01-07T08:55:56;3.13;;;1.50;;
19778;SDS011;10049;59.306;18.090;2024-01-07T08:58:25;2.23;;;1.27;;
19778;SDS011;10049;59.306;18.090;2024-01-07T09:00:53;1.90;;;1.20;;
19778;SDS011;10049;59.306;18.090;2024-01-07T09:03:26;1.63;;;1.27;;
19778;SDS011;10049;59.306;18.090;2024-01-07T09:05:59;2.30;;;1.40;;
19778;SDS011;10049;59.306;18.090;2024-01-07T09:08:27;1.67;;;1.30;;
19778;SDS011;10049;59.306;18.090;2024-01-07T09:10:54;1.33;;;1.17;;
19778;SDS011;10049;59.306;18.090;2024-01-07T09:13:22;1.70;;;1.20;;
19778;SDS011;10049;59.306;18.090;2024-01-07T09:15:49;2.37;;;1.40;;
19778;SDS011;10049;59.306;18.090;2024-01-07T09:18:18;1.57;;;1.30;;
19778;SDS011;10049;59.306;18.090;2024-01-07T09:20:48;1.73;;;1.20;;
19778;SDS011;10049;59.306;18.090;2024-01-07T09:23:18;2.23;;;1.50;;
19778;SDS011;10049;59.306;18.090;2024-01-07T09:25:45;3.83;;;1.47;;
19778;SDS011;10049;59.306;18.090;2024-01-07T09:28:14;2.03;;;1.43;;
19778;SDS011;10049;59.306;18.090;2024-01-07T09:30:41;2.30;;;1.40;;
19778;SDS011;10049;59.306;18.090;2024-01-07T09:33:10;2.70;;;1.33;;
19778;SDS011;10049;59.306;18.090;2024-01-07T09:35:37;2.83;;;1.47;;
19778;SDS011;10049;59.306;18.090;2024-01-07T09:38:07;1.30;;;1.20;;
19778;SDS011;10049;59.306;18.090;2024-01-07T09:40:35;2.07;;;1.50;;
19778;SDS011;10049;59.306;18.090;2024-01-07T09:43:05;2.13;;;1.30;;
19778;SDS011;10049;59.306;18.090;2024-01-07T09:45:41;2.03;;;1.40;;
19778;SDS011;10049;59.306;18.090;2024-01-07T09:48:09;2.20;;;1.43;;
19778;SDS011;10049;59.306;18.090;2024-01-07T09:50:39;2.40;;;1.80;;
19778;SDS011;10049;59.306;18.090;2024-01-07T09:53:11;6.27;;;1.70;;
19778;SDS011;10049;59.306;18.090;2024-01-07T09:55:47;2.67;;;1.50;;
19778;SDS011;10049;59.306;18.090;2024-01-07T09:58:21;1.43;;;1.10;;
19778;SDS011;10049;59.306;18.090;2024-01-07T10:00:58;2.07;;;1.40;;
19778;SDS011;10049;59.306;18.090;2024-01-07T10:03:30;1.97;;;1.47;;
19778;SDS011;10049;59.306;18.090;2024-01-07T10:05:58;6.20;;;1.40;;
19778;SDS011;10049;59.306;18.090;2024-01-07T10:08:33;2.03;;;1.53;;
19778;SDS011;10049;59.306;18.090;2024-01-07T10:11:01;2.50;;;1.53;;
19778;SDS011;10049;59.306;18.090;2024-01-07T10:13:30;1.97;;;1.40;;
19778;SDS011;10049;59.306;18.090;2024-01-07T10:15:57;2.20;;;1.70;;
19778;SDS011;10049;59.306;18.090;2024-01-07T10:18:25;3.47;;;1.50;;
19778;SDS011;10049;59.306;18.090;2024-01-07T10:20:56;3.40;;;1.80;;
19778;SDS011;10049;59.306;18.090;2024-01-07T10:23:35;2.30;;;1.43;;
19778;SDS011;10049;59.306;18.090;2024-01-07T10:26:09;1.90;;;1.50;;
19778;SDS011;10049;59.306;18.090;2024-01-07T10:28:37;2.60;;;1.57;;
19778;SDS011;10049;59.306;18.090;2024-01-07T10:31:05;3.23;;;1.63;;
19778;SDS011;10049;59.306;18.090;2024-01-07T10:33:34;2.73;;;1.77;;
19778;SDS011;10049;59.306;18.090;2024-01-07T10:36:02;2.37;;;1.40;;
19778;SDS011;10049;59.306;18.090;2024-01-07T10:38:32;3.60;;;1.73;;
19778;SDS011;10049;59.306;18.090;2024-01-07T10:41:05;10.30;;;1.60;;
19778;SDS011;10049;59.306;18.090;2024-01-07T10:43:36;2.70;;;1.47;;
19778;SDS011;10049;59.306;18.090;2024-01-07T10:46:03;4.07;;;1.30;;
19778;SDS011;10049;59.306;18.090;2024-01-07T10:48:36;3.40;;;1.57;;
19778;SDS011;10049;59.306;18.090;2024-01-07T10:51:07;2.77;;;1.50;;
19778;SDS011;10049;59.306;18.090;2024-01-07T10:53:36;2.67;;;1.57;;
19778;SDS011;10049;59.306;18.090;2024-01-07T10:56:17;2.00;;;1.60;;
19778;SDS011;10049;59.306;18.090;2024-01-07T10:58:47;2.07;;;1.50;;
19778;SDS011;10049;59.306;18.090;2024-01-07T11:01:15;3.27;;;1.73;;
19778;SDS011;10049;59.306;18.090;2024-01-07T11:03:54;1.30;;;1.07;;
19778;SDS011;10049;59.306;18.090;2024-01-07T11:06:26;1.93;;;1.57;;
19778;SDS011;10049;59.306;18.090;2024-01-07T11:08:56;3.20;;;1.53;;
19778;SDS011;10049;59.306;18.090;2024-01-07T11:11:44;3.87;;;1.30;;
19778;SDS011;10049;59.306;18.090;2024-01-07T11:16:55;1.93;;;1.43;;
19778;SDS011;10049;59.306;18.090;2024-01-07T11:19:23;3.00;;;1.70;;
19778;SDS011;10049;59.306;18.090;2024-01-07T11:24:49;4.73;;;1.70;;
19778;SDS011;10049;59.306;18.090;2024-01-07T11:27:19;2.83;;;1.67;;
19778;SDS011;10049;59.306;18.090;2024-01-07T11:29:54;3.17;;;1.77;;
19778;SDS011;10049;59.306;18.090;2024-01-07T11:32:22;3.30;;;1.90;;
19778;SDS011;10049;59.306;18.090;2024-01-07T11:34:53;2.23;;;1.50;;
19778;SDS011;10049;59.306;18.090;2024-01-07T11:37:22;3.10;;;1.63;;
19778;SDS011;10049;59.306;18.090;2024-01-07T11:39:51;2.37;;;1.80;;
19778;SDS011;10049;59.306;18.090;2024-01-07T11:42:31;2.90;;;1.67;;
19778;SDS011;10049;59.306;18.090;2024-01-07T11:45:02;4.37;;;1.57;;
19778;SDS011;10049;59.306;18.090;2024-01-07T11:47:32;2.70;;;1.77;;
19778;SDS011;10049;59.306;18.090;2024-01-07T11:50:01;1.97;;;1.53;;
19778;SDS011;10049;59.306;18.090;2024-01-07T11:52:29;2.43;;;1.60;;
19778;SDS011;10049;59.306;18.090;2024-01-07T11:55:00;3.83;;;2.00;;
19778;SDS011;10049;59.306;18.090;2024-01-07T11:57:30;2.27;;;1.50;;
19778;SDS011;10049;59.306;18.090;2024-01-07T11:59:58;3.83;;;2.07;;
19778;SDS011;10049;59.306;18.090;2024-01-07T12:02:25;4.13;;;2.10;;
19778;SDS011;10049;59.306;18.090;2024-01-07T12:04:55;3.20;;;1.83;;
19778;SDS011;10049;59.306;18.090;2024-01-07T12:07:23;4.43;;;1.97;;
19778;SDS011;10049;59.306;18.090;2024-01-07T12:09:55;2.63;;;1.60;;
19778;SDS011;10049;59.306;18.090;2024-01-07T12:12:27;2.70;;;1.50;;
19778;SDS011;10049;59.306;18.090;2024-01-07T12:14:58;4.77;;;1.80;;
19778;SDS011;10049;59.306;18.090;2024-01-07T12:17:31;2.73;;;1.60;;
19778;SDS011;10049;59.306;18.090;2024-01-07T12:19:59;3.60;;;1.70;;
19778;SDS011;10049;59.306;18.090;2024-01-07T12:22:30;2.40;;;1.57;;
19778;SDS011;10049;59.306;18.090;2024-01-07T12:25:02;2.60;;;1.67;;
19778;SDS011;10049;59.306;18.090;2024-01-07T12:27:30;3.67;;;2.00;;
19778;SDS011;10049;59.306;18.090;2024-01-07T12:30:02;3.20;;;1.63;;
19778;SDS011;10049;59.306;18.090;2024-01-07T12:32:32;2.90;;;1.73;;
19778;SDS011;10049;59.306;18.090;2024-01-07T12:35:01;2.83;;;2.00;;
19778;SDS011;10049;59.306;18.090;2024-01-07T12:37:28;3.03;;;1.77;;
19778;SDS011;10049;59.306;18.090;2024-01-07T12:39:57;2.73;;;1.50;;
19778;SDS011;10049;59.306;18.090;2024-01-07T12:42:26;2.73;;;1.90;;
19778;SDS011;10049;59.306;18.090;2024-01-07T12:44:53;1.87;;;1.50;;
19778;SDS011;10049;59.306;18.090;2024-01-07T12:47:23;3.70;;;1.83;;
19778;SDS011;10049;59.306;18.090;2024-01-07T12:49:52;2.20;;;1.50;;
19778;SDS011;10049;59.306;18.090;2024-01-07T12:52:19;2.70;;;1.57;;
19778;SDS011;10049;59.306;18.090;2024-01-07T12:54:47;3.60;;;1.70;;
19778;SDS011;10049;59.306;18.090;2024-01-07T12:57:14;2.40;;;1.63;;
19778;SDS011;10049;59.306;18.090;2024-01-07T12:59:42;3.07;;;1.90;;
19778;SDS011;10049;59.306;18.090;2024-01-07T13:02:11;2.53;;;1.73;;
19778;SDS011;10049;59.306;18.090;2024-01-07T13:04:41;3.43;;;1.70;;
19778;SDS011;10049;59.306;18.090;2024-01-07T13:07:09;3.13;;;1.90;;
19778;SDS011;10049;59.306;18.090;2024-01-07T13:09:36;2.07;;;1.70;;
19778;SDS011;10049;59.306;18.090;2024-01-07T13:12:05;2.80;;;1.80;;
19778;SDS011;10049;59.306;18.090;2024-01-07T13:14:33;2.67;;;1.70;;
19778;SDS011;10049;59.306;18.090;2024-01-07T13:17:00;3.77;;;2.10;;
19778;SDS011;10049;59.306;18.090;2024-01-07T13:19:29;3.87;;;1.60;;
19778;SDS011;10049;59.306;18.090;2024-01-07T13:22:00;3.63;;;1.70;;
19778;SDS011;10049;59.306;18.090;2024-01-07T13:24:27;4.60;;;2.00;;
19778;SDS011;10049;59.306;18.090;2024-01-07T13:26:55;3.70;;;1.83;;
19778;SDS011;10049;59.306;18.090;2024-01-07T13:29:23;5.00;;;2.10;;
19778;SDS011;10049;59.306;18.090;2024-01-07T13:31:51;4.97;;;2.20;;
19778;SDS011;10049;59.306;18.090;2024-01-07T13:34:20;4.33;;;2.20;;
19778;SDS011;10049;59.306;18.090;2024-01-07T13:36:48;3.47;;;1.80;;
19778;SDS011;10049;59.306;18.090;2024-01-07T13:39:18;2.97;;;1.90;;
19778;SDS011;10049;59.306;18.090;2024-01-07T13:41:47;3.00;;;1.60;;
19778;SDS011;10049;59.306;18.090;2024-01-07T13:44:15;2.40;;;1.60;;
19778;SDS011;10049;59.306;18.090;2024-01-07T13:46:44;3.37;;;1.87;;
19778;SDS011;10049;59.306;18.090;2024-01-07T13:49:12;3.17;;;2.03;;
19778;SDS011;10049;59.306;18.090;2024-01-07T13:51:42;2.87;;;1.90;;
19778;SDS011;10049;59.306;18.090;2024-01-07T13:54:11;3.37;;;1.80;;
19778;SDS011;10049;59.306;18.090;2024-01-07T13:56:41;2.73;;;1.60;;
19778;SDS011;10049;59.306;18.090;2024-01-07T13:59:11;2.83;;;1.70;;
19778;SDS011;10049;59.306;18.090;2024-01-07T14:01:38;1.90;;;1.37;;
19778;SDS011;10049;59.306;18.090;2024-01-07T14:04:07;2.53;;;1.50;;
19778;SDS011;10049;59.306;18.090;2024-01-07T14:06:35;2.30;;;1.40;;
19778;SDS011;10049;59.306;18.090;2024-01-07T14:09:03;3.37;;;1.80;;
19778;SDS011;10049;59.306;18.090;2024-01-07T14:11:33;3.80;;;1.97;;
19778;SDS011;10049;59.306;18.090;2024-01-07T14:14:07;2.30;;;1.60;;
19778;SDS011;10049;59.306;18.090;2024-01-07T14:16:35;2.90;;;1.73;;
19778;SDS011;10049;59.306;18.090;2024-01-07T14:19:02;3.67;;;1.80;;
19778;SDS011;10049;59.306;18.090;2024-01-07T14:21:31;2.97;;;2.00;;
19778;SDS011;10049;59.306;18.090;2024-01-07T14:23:59;4.53;;;2.10;;
19778;SDS011;10049;59.306;18.090;2024-01-07T14:26:28;3.83;;;1.87;;
19778;SDS011;10049;59.306;18.090;2024-01-07T14:28:56;2.43;;;1.70;;
19778;SDS011;10049;59.306;18.090;2024-01-07T14:31:26;3.53;;;1.93;;
19778;SDS011;10049;59.306;18.090;2024-01-07T14:33:53;3.13;;;1.90;;
19778;SDS011;10049;59.306;18.090;2024-01-07T14:36:24;4.10;;;2.10;;
19778;SDS011;10049;59.306;18.090;2024-01-07T14:38:53;3.40;;;2.10;;
19778;SDS011;10049;59.306;18.090;2024-01-07T14:41:21;2.87;;;1.63;;
19778;SDS011;10049;59.306;18.090;2024-01-07T14:43:48;3.50;;;2.00;;
19778;SDS011;10049;59.306;18.090;2024-01-07T14:46:16;3.37;;;2.13;;
19778;SDS011;10049;59.306;18.090;2024-01-07T14:48:46;2.83;;;1.77;;